createdAt,value
2018-05-17T00:00:37.894Z,996.94
2018-05-17T00:01:37.893Z,996.96
2018-05-17T00:02:37.896Z,996.93
2018-05-17T00:03:37.891Z,996.98
2018-05-17T00:04:37.891Z,996.98
2018-05-17T00:05:37.911Z,996.96
2018-05-17T00:06:37.893Z,996.95
2018-05-17T00:07:37.893Z,996.90
2018-05-17T00:08:37.893Z,996.88
2018-05-17T00:09:37.892Z,996.90
2018-05-17T00:10:37.890Z,996.90
2018-05-17T00:11:37.892Z,996.93
2018-05-17T00:12:37.893Z,996.87
2018-05-17T00:13:37.893Z,996.88
2018-05-17T00:14:37.897Z,996.90
2018-05-17T00:15:37.893Z,996.86
2018-05-17T00:16:37.890Z,996.87
2018-05-17T00:17:37.893Z,996.87
2018-05-17T00:18:37.892Z,996.83
2018-05-17T00:19:37.889Z,996.86
2018-05-17T00:20:37.891Z,996.90
2018-05-17T00:21:37.890Z,996.86
2018-05-17T00:22:37.894Z,996.85
2018-05-17T00:23:37.889Z,996.86
2018-05-17T00:24:37.891Z,996.85
2018-05-17T00:25:37.888Z,996.82
2018-05-17T00:26:38.074Z,996.86
2018-05-17T00:27:37.890Z,996.81
2018-05-17T00:28:37.891Z,996.81
2018-05-17T00:29:37.890Z,996.78
2018-05-17T00:30:37.894Z,996.79
2018-05-17T00:31:37.889Z,996.74
2018-05-17T00:32:37.889Z,996.75
2018-05-17T00:33:37.888Z,996.74
2018-05-17T00:34:37.888Z,996.74
2018-05-17T00:35:37.886Z,996.71
2018-05-17T00:36:37.887Z,996.70
2018-05-17T00:37:37.887Z,996.65
2018-05-17T00:38:37.892Z,996.67
2018-05-17T00:39:37.886Z,996.64
2018-05-17T00:40:37.888Z,996.64
2018-05-17T00:41:37.891Z,996.64
2018-05-17T00:42:37.887Z,996.68
2018-05-17T00:43:37.887Z,996.65
2018-05-17T00:44:37.886Z,996.68
2018-05-17T00:45:37.892Z,996.64
2018-05-17T00:46:37.889Z,996.68
2018-05-17T00:47:37.886Z,996.64
2018-05-17T00:48:37.889Z,996.65
2018-05-17T00:49:37.888Z,996.62
2018-05-17T00:50:37.886Z,996.63
2018-05-17T00:51:37.887Z,996.62
2018-05-17T00:52:37.885Z,996.62
2018-05-17T00:53:37.886Z,996.65
2018-05-17T00:54:37.887Z,996.64
2018-05-17T00:55:37.893Z,996.61
2018-05-17T00:56:37.885Z,996.62
2018-05-17T00:57:38.441Z,996.67
2018-05-17T00:58:37.887Z,996.63
2018-05-17T00:59:37.885Z,996.63
2018-05-17T01:00:37.886Z,996.64
2018-05-17T01:01:37.888Z,996.59
2018-05-17T01:02:37.886Z,996.62
2018-05-17T01:03:37.883Z,996.59
2018-05-17T01:04:37.889Z,996.60
2018-05-17T01:05:37.886Z,996.57
2018-05-17T01:06:37.896Z,996.60
2018-05-17T01:07:37.885Z,996.57
2018-05-17T01:08:37.885Z,996.57
2018-05-17T01:09:37.885Z,996.62
2018-05-17T01:10:37.887Z,996.62
2018-05-17T01:11:37.883Z,996.60
2018-05-17T01:12:37.884Z,996.59
2018-05-17T01:13:37.886Z,996.59
2018-05-17T01:14:37.902Z,996.60
2018-05-17T01:15:37.885Z,996.58
2018-05-17T01:16:37.892Z,996.58
2018-05-17T01:17:37.884Z,996.60
2018-05-17T01:18:37.893Z,996.59
2018-05-17T01:19:37.883Z,996.60
2018-05-17T01:20:37.885Z,996.60
2018-05-17T01:21:37.887Z,996.56
2018-05-17T01:22:37.887Z,996.56
2018-05-17T01:23:37.887Z,996.61
2018-05-17T01:24:37.884Z,996.61
2018-05-17T01:25:37.884Z,996.61
2018-05-17T01:26:37.884Z,996.61
2018-05-17T01:27:37.892Z,996.59
2018-05-17T01:28:38.883Z,996.59
2018-05-17T01:29:37.885Z,996.57
2018-05-17T01:30:37.884Z,996.59
2018-05-17T01:31:37.890Z,996.60
2018-05-17T01:32:37.884Z,996.58
2018-05-17T01:33:37.891Z,996.60
2018-05-17T01:34:37.886Z,996.59
2018-05-17T01:35:37.884Z,996.62
2018-05-17T01:36:37.884Z,996.59
2018-05-17T01:37:37.891Z,996.58
2018-05-17T01:38:37.889Z,996.61
2018-05-17T01:39:37.885Z,996.62
2018-05-17T01:40:37.884Z,996.61
2018-05-17T01:41:37.887Z,996.59
2018-05-17T01:42:37.886Z,996.58
2018-05-17T01:43:37.886Z,996.59
2018-05-17T01:44:37.888Z,996.61
2018-05-17T01:45:37.886Z,996.62
2018-05-17T01:46:37.888Z,996.59
2018-05-17T01:47:37.889Z,996.60
2018-05-17T01:48:37.887Z,996.63
2018-05-17T01:49:37.886Z,996.63
2018-05-17T01:50:37.888Z,996.62
2018-05-17T01:51:37.886Z,996.59
2018-05-17T01:52:37.887Z,996.59
2018-05-17T01:53:37.888Z,996.59
2018-05-17T01:54:37.889Z,996.64
2018-05-17T01:55:37.897Z,996.64
2018-05-17T01:56:37.889Z,996.65
2018-05-17T01:57:37.889Z,996.62
2018-05-17T01:58:37.889Z,996.65
2018-05-17T01:59:37.889Z,996.64
2018-05-17T02:00:37.893Z,996.63
2018-05-17T02:01:37.892Z,996.64
2018-05-17T02:02:37.894Z,996.62
2018-05-17T02:03:37.890Z,996.64
2018-05-17T02:04:37.892Z,996.62
2018-05-17T02:05:37.891Z,996.66
2018-05-17T02:06:37.893Z,996.64
2018-05-17T02:07:37.890Z,996.60
2018-05-17T02:08:37.891Z,996.60
2018-05-17T02:09:37.892Z,996.58
2018-05-17T02:10:37.893Z,996.60
2018-05-17T02:11:37.894Z,996.61
2018-05-17T02:12:37.891Z,996.60
2018-05-17T02:13:37.893Z,996.59
2018-05-17T02:14:37.893Z,996.58
2018-05-17T02:15:37.895Z,996.56
2018-05-17T02:16:37.894Z,996.60
2018-05-17T02:17:37.893Z,996.61
2018-05-17T02:18:37.895Z,996.60
2018-05-17T02:19:37.895Z,996.62
2018-05-17T02:20:37.895Z,996.64
2018-05-17T02:21:37.894Z,996.62
2018-05-17T02:22:37.896Z,996.64
2018-05-17T02:23:37.898Z,996.67
2018-05-17T02:24:37.902Z,996.63
2018-05-17T02:25:37.895Z,996.64
2018-05-17T02:26:37.898Z,996.66
2018-05-17T02:27:37.896Z,996.70
2018-05-17T02:28:37.898Z,996.71
2018-05-17T02:29:37.900Z,996.70
2018-05-17T02:30:37.902Z,996.75
2018-05-17T02:31:37.903Z,996.72
2018-05-17T02:32:37.899Z,996.74
2018-05-17T02:33:37.909Z,996.73
2018-05-17T02:34:37.900Z,996.74
2018-05-17T02:35:37.899Z,996.73
2018-05-17T02:36:37.899Z,996.72
2018-05-17T02:37:37.900Z,996.74
2018-05-17T02:38:37.902Z,996.73
2018-05-17T02:39:37.899Z,996.75
2018-05-17T02:40:37.910Z,996.76
2018-05-17T02:41:37.901Z,996.75
2018-05-17T02:42:37.901Z,996.78
2018-05-17T02:43:37.903Z,996.78
2018-05-17T02:44:37.902Z,996.82
2018-05-17T02:45:37.903Z,996.81
2018-05-17T02:46:37.906Z,996.80
2018-05-17T02:47:37.902Z,996.80
2018-05-17T02:48:37.903Z,996.81
2018-05-17T02:49:37.906Z,996.81
2018-05-17T02:50:37.904Z,996.81
2018-05-17T02:51:37.904Z,996.82
2018-05-17T02:52:37.902Z,996.78
2018-05-17T02:53:37.907Z,996.80
2018-05-17T02:54:37.908Z,996.79
2018-05-17T02:55:37.904Z,996.77
2018-05-17T02:56:37.905Z,996.75
2018-05-17T02:57:37.906Z,996.82
2018-05-17T02:58:37.910Z,996.78
2018-05-17T02:59:37.909Z,996.77
2018-05-17T03:00:38.047Z,996.82
2018-05-17T03:01:37.907Z,996.81
2018-05-17T03:02:37.906Z,996.84
2018-05-17T03:03:37.907Z,996.80
2018-05-17T03:04:37.907Z,996.85
2018-05-17T03:05:37.912Z,996.84
2018-05-17T03:06:37.911Z,996.83
2018-05-17T03:07:37.908Z,996.84
2018-05-17T03:08:37.910Z,996.85
2018-05-17T03:09:37.909Z,996.84
2018-05-17T03:10:37.910Z,996.86
2018-05-17T03:11:37.908Z,996.88
2018-05-17T03:12:37.910Z,996.87
2018-05-17T03:13:37.909Z,996.87
2018-05-17T03:14:37.911Z,996.89
2018-05-17T03:15:37.913Z,996.88
2018-05-17T03:16:37.909Z,996.89
2018-05-17T03:17:37.910Z,996.96
2018-05-17T03:18:37.911Z,996.93
2018-05-17T03:19:37.915Z,996.93
2018-05-17T03:20:37.911Z,996.96
2018-05-17T03:21:37.910Z,996.97
2018-05-17T03:22:37.965Z,996.97
2018-05-17T03:23:37.914Z,996.99
2018-05-17T03:24:37.910Z,996.97
2018-05-17T03:25:37.916Z,997.02
2018-05-17T03:26:37.916Z,997.01
2018-05-17T03:27:37.911Z,997.00
2018-05-17T03:28:37.912Z,997.07
2018-05-17T03:29:37.914Z,997.07
2018-05-17T03:30:37.915Z,997.07
2018-05-17T03:31:38.382Z,997.08
2018-05-17T03:32:37.914Z,997.12
2018-05-17T03:33:37.915Z,997.10
2018-05-17T03:34:37.914Z,997.12
2018-05-17T03:35:37.912Z,997.13
2018-05-17T03:36:37.913Z,997.13
2018-05-17T03:37:37.916Z,997.12
2018-05-17T03:38:37.915Z,997.15
2018-05-17T03:39:37.914Z,997.18
2018-05-17T03:40:37.915Z,997.15
2018-05-17T03:41:37.917Z,997.15
2018-05-17T03:42:37.916Z,997.17
2018-05-17T03:43:37.915Z,997.15
2018-05-17T03:44:37.916Z,997.15
2018-05-17T03:45:37.916Z,997.19
2018-05-17T03:46:37.916Z,997.18
2018-05-17T03:47:37.916Z,997.22
2018-05-17T03:48:37.919Z,997.17
2018-05-17T03:49:37.919Z,997.21
2018-05-17T03:50:37.920Z,997.20
2018-05-17T03:51:37.920Z,997.22
2018-05-17T03:52:37.916Z,997.20
2018-05-17T03:53:37.918Z,997.25
2018-05-17T03:54:37.917Z,997.29
2018-05-17T03:55:37.916Z,997.27
2018-05-17T03:56:37.917Z,997.22
2018-05-17T03:57:37.917Z,997.25
2018-05-17T03:58:37.916Z,997.26
2018-05-17T03:59:37.915Z,997.31
2018-05-17T04:00:37.916Z,997.30
2018-05-17T04:01:37.915Z,997.36
2018-05-17T04:02:38.842Z,997.33
2018-05-17T04:03:37.915Z,997.34
2018-05-17T04:04:37.918Z,997.32
2018-05-17T04:05:37.919Z,997.37
2018-05-17T04:06:37.917Z,997.40
2018-05-17T04:07:37.917Z,997.42
2018-05-17T04:08:37.932Z,997.39
2018-05-17T04:09:37.918Z,997.40
2018-05-17T04:10:37.916Z,997.40
2018-05-17T04:11:37.916Z,997.44
2018-05-17T04:12:37.915Z,997.43
2018-05-17T04:13:37.915Z,997.50
2018-05-17T04:14:37.917Z,997.50
2018-05-17T04:15:37.915Z,997.57
2018-05-17T04:16:37.920Z,997.46
2018-05-17T04:17:37.917Z,997.51
2018-05-17T04:18:37.916Z,997.49
2018-05-17T04:19:37.915Z,997.55
2018-05-17T04:20:37.916Z,997.60
2018-05-17T04:21:37.917Z,997.57
2018-05-17T04:22:37.916Z,997.60
2018-05-17T04:23:37.915Z,997.65
2018-05-17T04:24:37.915Z,997.63
2018-05-17T04:25:37.984Z,997.63
2018-05-17T04:26:37.915Z,997.61
2018-05-17T04:27:37.915Z,997.62
2018-05-17T04:28:37.920Z,997.68
2018-05-17T04:29:37.916Z,997.69
2018-05-17T04:30:37.914Z,997.69
2018-05-17T04:31:37.914Z,997.69
2018-05-17T04:32:37.919Z,997.75
2018-05-17T04:33:37.917Z,997.70
2018-05-17T04:34:37.914Z,997.67
2018-05-17T04:35:37.916Z,997.70
2018-05-17T04:36:37.920Z,997.70
2018-05-17T04:37:37.914Z,997.68
2018-05-17T04:38:37.914Z,997.71
2018-05-17T04:39:37.914Z,997.73
2018-05-17T04:40:37.912Z,997.71
2018-05-17T04:41:37.913Z,997.73
2018-05-17T04:42:37.915Z,997.73
2018-05-17T04:43:37.915Z,997.70
2018-05-17T04:44:37.915Z,997.70
2018-05-17T04:45:37.917Z,997.75
2018-05-17T04:46:37.933Z,997.77
2018-05-17T04:47:37.914Z,997.72
2018-05-17T04:48:37.914Z,997.77
2018-05-17T04:49:38.360Z,997.74
2018-05-17T04:50:37.917Z,997.77
2018-05-17T04:51:37.912Z,997.71
2018-05-17T04:52:37.913Z,997.73
2018-05-17T04:53:37.915Z,997.76
2018-05-17T04:54:37.919Z,997.77
2018-05-17T04:55:37.916Z,997.79
2018-05-17T04:56:37.916Z,997.79
2018-05-17T04:57:37.915Z,997.75
2018-05-17T04:58:37.920Z,997.78
2018-05-17T04:59:37.916Z,997.77
2018-05-17T05:00:37.925Z,997.77
2018-05-17T05:01:37.914Z,997.80
2018-05-17T05:02:37.923Z,997.83
2018-05-17T05:03:37.918Z,997.82
2018-05-17T05:04:37.917Z,997.81
2018-05-17T05:05:37.920Z,997.79
2018-05-17T05:06:37.922Z,997.79
2018-05-17T05:07:37.916Z,997.81
2018-05-17T05:08:37.917Z,997.81
2018-05-17T05:09:37.917Z,997.78
2018-05-17T05:10:37.919Z,997.77
2018-05-17T05:11:37.916Z,997.78
2018-05-17T05:12:37.917Z,997.76
2018-05-17T05:13:37.919Z,997.81
2018-05-17T05:14:37.917Z,997.81
2018-05-17T05:15:37.920Z,997.79
2018-05-17T05:16:37.921Z,997.85
2018-05-17T05:17:37.920Z,997.79
2018-05-17T05:18:37.919Z,997.80
2018-05-17T05:19:37.919Z,997.85
2018-05-17T05:20:37.918Z,997.84
2018-05-17T05:21:37.919Z,997.91
2018-05-17T05:22:37.921Z,997.91
2018-05-17T05:23:37.920Z,997.92
2018-05-17T05:24:37.918Z,997.91
2018-05-17T05:25:37.922Z,997.88
2018-05-17T05:26:37.923Z,997.86
2018-05-17T05:27:37.920Z,997.87
2018-05-17T05:28:37.918Z,997.89
2018-05-17T05:29:37.924Z,997.87
2018-05-17T05:30:37.920Z,997.90
2018-05-17T05:31:38.000Z,997.93
2018-05-17T05:32:37.918Z,997.90
2018-05-17T05:33:37.919Z,997.91
2018-05-17T05:34:38.087Z,997.92
2018-05-17T05:35:37.917Z,997.96
2018-05-17T05:36:37.921Z,997.95
2018-05-17T05:37:37.968Z,997.93
2018-05-17T05:38:37.919Z,997.95
2018-05-17T05:39:37.918Z,997.99
2018-05-17T05:40:37.931Z,997.94
2018-05-17T05:41:37.919Z,997.98
2018-05-17T05:42:37.921Z,997.97
2018-05-17T05:43:37.919Z,997.99
2018-05-17T05:44:37.918Z,997.98
2018-05-17T05:45:37.926Z,998.01
2018-05-17T05:46:38.003Z,998.02
2018-05-17T05:47:37.918Z,997.98
2018-05-17T05:48:37.925Z,998.00
2018-05-17T05:49:37.947Z,997.99
2018-05-17T05:50:37.925Z,998.06
2018-05-17T05:51:37.916Z,998.04
2018-05-17T05:52:37.923Z,998.02
2018-05-17T05:53:37.924Z,998.06
2018-05-17T05:54:37.921Z,998.06
2018-05-17T05:55:37.921Z,998.04
2018-05-17T05:56:37.925Z,998.04
2018-05-17T05:57:40.812Z,998.06
2018-05-17T05:58:37.919Z,998.06
2018-05-17T05:59:37.918Z,998.06
2018-05-17T06:00:37.919Z,998.07
2018-05-17T06:01:37.987Z,998.05
2018-05-17T06:02:37.934Z,998.08
2018-05-17T06:03:37.920Z,998.08
2018-05-17T06:04:37.921Z,998.07
2018-05-17T06:05:38.512Z,998.06
2018-05-17T06:06:37.921Z,998.12
2018-05-17T06:07:37.923Z,998.12
2018-05-17T06:08:37.930Z,998.14
2018-05-17T06:09:37.921Z,998.17
2018-05-17T06:10:37.921Z,998.27
2018-05-17T06:11:37.930Z,998.23
2018-05-17T06:12:37.920Z,998.23
2018-05-17T06:13:37.931Z,998.23
2018-05-17T06:14:37.994Z,998.23
2018-05-17T06:15:37.921Z,998.24
2018-05-17T06:16:37.921Z,998.23
2018-05-17T06:17:37.926Z,998.25
2018-05-17T06:18:37.936Z,998.22
2018-05-17T06:19:37.923Z,998.25
2018-05-17T06:20:37.925Z,998.29
2018-05-17T06:21:37.925Z,998.24
2018-05-17T06:22:37.925Z,998.27
2018-05-17T06:23:37.924Z,998.32
2018-05-17T06:24:37.927Z,998.29
2018-05-17T06:25:37.928Z,998.29
2018-05-17T06:26:37.927Z,998.32
2018-05-17T06:27:37.928Z,998.32
2018-05-17T06:28:37.928Z,998.31
2018-05-17T06:29:37.930Z,998.26
2018-05-17T06:30:37.931Z,998.28
2018-05-17T06:31:37.932Z,998.29
2018-05-17T06:32:37.946Z,998.29
2018-05-17T06:33:37.931Z,998.31
2018-05-17T06:34:37.931Z,998.33
2018-05-17T06:35:37.931Z,998.29
2018-05-17T06:36:38.932Z,998.37
2018-05-17T06:37:37.937Z,998.34
2018-05-17T06:38:37.945Z,998.39
2018-05-17T06:39:37.939Z,998.37
2018-05-17T06:40:37.989Z,998.40
2018-05-17T06:41:37.944Z,998.37
2018-05-17T06:42:37.936Z,998.43
2018-05-17T06:43:38.036Z,998.41
2018-05-17T06:44:37.992Z,998.42
2018-05-17T06:45:37.942Z,998.42
2018-05-17T06:46:37.939Z,998.47
2018-05-17T06:47:37.943Z,998.47
2018-05-17T06:48:37.940Z,998.48
2018-05-17T06:49:37.942Z,998.50
2018-05-17T06:50:37.942Z,998.44
2018-05-17T06:51:37.955Z,998.50
2018-05-17T06:52:37.943Z,998.51
2018-05-17T06:53:37.978Z,998.55
2018-05-17T06:54:37.947Z,998.51
2018-05-17T06:55:37.952Z,998.56
2018-05-17T06:56:37.949Z,998.58
2018-05-17T06:57:37.954Z,998.57
2018-05-17T06:58:37.948Z,998.54
2018-05-17T06:59:37.974Z,998.51
2018-05-17T07:00:37.997Z,998.54
2018-05-17T07:01:37.950Z,998.56
2018-05-17T07:02:37.951Z,998.57
2018-05-17T07:03:37.955Z,998.56
2018-05-17T07:04:37.964Z,998.56
2018-05-17T07:05:37.957Z,998.57
2018-05-17T07:06:37.957Z,998.58
2018-05-17T07:07:38.029Z,998.62
2018-05-17T07:08:38.049Z,998.63
2018-05-17T07:09:38.040Z,998.59
2018-05-17T07:10:37.965Z,998.62
2018-05-17T07:11:37.960Z,998.60
2018-05-17T07:12:38.006Z,998.59
2018-05-17T07:13:37.962Z,998.63
2018-05-17T07:14:38.130Z,998.63
2018-05-17T07:15:38.145Z,998.63
2018-05-17T07:16:38.112Z,998.68
2018-05-17T07:17:38.046Z,998.70
2018-05-17T07:18:38.358Z,998.63
2018-05-17T07:19:37.967Z,998.66
2018-05-17T07:20:37.967Z,998.64
2018-05-17T07:21:37.991Z,998.70
2018-05-17T07:22:38.000Z,998.68
2018-05-17T07:23:37.973Z,998.74
2018-05-17T07:24:37.971Z,998.73
2018-05-17T07:25:37.972Z,998.76
2018-05-17T07:26:37.975Z,998.77
2018-05-17T07:27:37.976Z,998.74
2018-05-17T07:28:37.976Z,998.76
2018-05-17T07:29:37.975Z,998.74
2018-05-17T07:30:37.978Z,998.71
2018-05-17T07:31:37.977Z,998.74
2018-05-17T07:32:37.984Z,998.77
2018-05-17T07:33:37.981Z,998.74
2018-05-17T07:34:37.983Z,998.78
2018-05-17T07:35:37.983Z,998.77
2018-05-17T07:36:37.983Z,998.80
2018-05-17T07:37:37.983Z,998.82
2018-05-17T07:38:37.985Z,998.84
2018-05-17T07:39:37.984Z,998.81
2018-05-17T07:40:38.029Z,998.86
2018-05-17T07:41:37.986Z,998.78
2018-05-17T07:42:37.990Z,998.84
2018-05-17T07:43:37.987Z,998.81
2018-05-17T07:44:37.987Z,998.82
2018-05-17T07:45:37.990Z,998.85
2018-05-17T07:46:38.085Z,998.84
2018-05-17T07:47:37.990Z,998.83
2018-05-17T07:48:37.998Z,998.87
2018-05-17T07:49:37.996Z,998.90
2018-05-17T07:50:37.994Z,998.91
2018-05-17T07:51:37.994Z,998.87
2018-05-17T07:52:37.995Z,998.90
2018-05-17T07:53:37.997Z,998.90
2018-05-17T07:54:38.002Z,998.90
2018-05-17T07:55:38.077Z,998.93
2018-05-17T07:56:38.004Z,998.92
2018-05-17T07:57:38.000Z,998.96
2018-05-17T07:58:38.000Z,999.00
2018-05-17T07:59:38.002Z,998.98
2018-05-17T08:00:38.067Z,999.01
2018-05-17T08:01:38.004Z,999.03
2018-05-17T08:02:38.121Z,999.01
2018-05-17T08:03:38.010Z,999.05
2018-05-17T08:04:38.076Z,999.04
2018-05-17T08:05:38.444Z,999.04
2018-05-17T08:06:38.007Z,999.08
2018-05-17T08:07:38.013Z,999.03
2018-05-17T08:08:38.091Z,999.08
2018-05-17T08:09:38.015Z,999.06
2018-05-17T08:10:38.013Z,999.08
2018-05-17T08:11:38.014Z,999.06
2018-05-17T08:12:38.013Z,999.13
2018-05-17T08:13:38.013Z,999.14
2018-05-17T08:14:38.014Z,999.13
2018-05-17T08:15:38.078Z,999.13
2018-05-17T08:16:38.014Z,999.17
2018-05-17T08:17:38.018Z,999.15
2018-05-17T08:18:38.016Z,999.13
2018-05-17T08:19:38.017Z,999.14
2018-05-17T08:20:38.019Z,999.18
2018-05-17T08:21:38.019Z,999.16
2018-05-17T08:22:38.023Z,999.16
2018-05-17T08:23:38.022Z,999.18
2018-05-17T08:24:38.032Z,999.20
2018-05-17T08:25:38.032Z,999.17
2018-05-17T08:26:38.025Z,999.16
2018-05-17T08:27:38.025Z,999.19
2018-05-17T08:28:38.026Z,999.20
2018-05-17T08:29:38.030Z,999.13
2018-05-17T08:30:38.027Z,999.21
2018-05-17T08:31:38.027Z,999.25
2018-05-17T08:32:38.028Z,999.24
2018-05-17T08:33:38.030Z,999.26
2018-05-17T08:34:38.030Z,999.23
2018-05-17T08:35:38.030Z,999.26
2018-05-17T08:36:38.175Z,999.26
2018-05-17T08:37:38.033Z,999.28
2018-05-17T08:38:38.036Z,999.30
2018-05-17T08:39:38.523Z,999.31
2018-05-17T08:40:38.037Z,999.33
2018-05-17T08:41:38.035Z,999.31
2018-05-17T08:42:38.109Z,999.33
2018-05-17T08:43:38.038Z,999.30
2018-05-17T08:44:38.044Z,999.30
2018-05-17T08:45:38.116Z,999.31
2018-05-17T08:46:38.044Z,999.31
2018-05-17T08:47:38.043Z,999.32
2018-05-17T08:48:38.093Z,999.35
2018-05-17T08:49:38.044Z,999.35
2018-05-17T08:50:38.046Z,999.36
2018-05-17T08:51:38.052Z,999.36
2018-05-17T08:52:38.047Z,999.36
2018-05-17T08:53:38.060Z,999.37
2018-05-17T08:54:38.048Z,999.37
2018-05-17T08:55:38.052Z,999.34
2018-05-17T08:56:38.053Z,999.35
2018-05-17T08:57:38.051Z,999.34
2018-05-17T08:58:38.053Z,999.37
2018-05-17T08:59:38.143Z,999.34
2018-05-17T09:00:38.057Z,999.41
2018-05-17T09:01:38.071Z,999.34
2018-05-17T09:02:38.058Z,999.36
2018-05-17T09:03:38.057Z,999.36
2018-05-17T09:04:38.065Z,999.38
2018-05-17T09:05:38.059Z,999.36
2018-05-17T09:06:38.061Z,999.37
2018-05-17T09:07:38.062Z,999.40
2018-05-17T09:08:38.064Z,999.38
2018-05-17T09:09:38.070Z,999.45
2018-05-17T09:10:38.919Z,999.47
2018-05-17T09:11:38.066Z,999.44
2018-05-17T09:12:38.065Z,999.42
2018-05-17T09:13:38.163Z,999.45
2018-05-17T09:14:38.069Z,999.47
2018-05-17T09:15:38.069Z,999.45
2018-05-17T09:16:38.075Z,999.45
2018-05-17T09:17:38.073Z,999.49
2018-05-17T09:18:38.076Z,999.50
2018-05-17T09:19:38.074Z,999.50
2018-05-17T09:20:38.077Z,999.52
2018-05-17T09:21:38.090Z,999.50
2018-05-17T09:22:38.081Z,999.44
2018-05-17T09:23:38.081Z,999.47
2018-05-17T09:24:38.082Z,999.56
2018-05-17T09:25:38.083Z,999.49
2018-05-17T09:26:38.086Z,999.49
2018-05-17T09:27:38.085Z,999.47
2018-05-17T09:28:38.087Z,999.47
2018-05-17T09:29:38.090Z,999.50
2018-05-17T09:30:38.099Z,999.52
2018-05-17T09:31:38.095Z,999.47
2018-05-17T09:32:38.114Z,999.48
2018-05-17T09:33:38.123Z,999.48
2018-05-17T09:34:38.098Z,999.50
2018-05-17T09:35:38.109Z,999.48
2018-05-17T09:36:38.101Z,999.49
2018-05-17T09:37:38.102Z,999.49
2018-05-17T09:38:38.105Z,999.52
2018-05-17T09:39:38.105Z,999.54
2018-05-17T09:40:38.119Z,999.51
2018-05-17T09:41:38.111Z,999.58
2018-05-17T09:42:38.121Z,999.57
2018-05-17T09:43:38.115Z,999.58
2018-05-17T09:44:38.138Z,999.58
2018-05-17T09:45:38.121Z,999.60
2018-05-17T09:46:38.120Z,999.64
2018-05-17T09:47:38.174Z,999.65
2018-05-17T09:48:38.126Z,999.64
2018-05-17T09:49:38.128Z,999.59
2018-05-17T09:50:38.144Z,999.62
2018-05-17T09:51:38.130Z,999.66
2018-05-17T09:52:38.134Z,999.62
2018-05-17T09:53:38.133Z,999.63
2018-05-17T09:54:38.136Z,999.61
2018-05-17T09:55:38.138Z,999.64
2018-05-17T09:56:38.147Z,999.60
2018-05-17T09:57:38.143Z,999.61
2018-05-17T09:58:38.145Z,999.60
2018-05-17T09:59:38.151Z,999.61
2018-05-17T10:00:38.165Z,999.61
2018-05-17T10:01:38.147Z,999.64
2018-05-17T10:02:38.545Z,999.59
2018-05-17T10:03:38.332Z,999.55
2018-05-17T10:04:38.154Z,999.55
2018-05-17T10:05:38.157Z,999.57
2018-05-17T10:06:38.163Z,999.56
2018-05-17T10:07:38.207Z,999.56
2018-05-17T10:08:38.163Z,999.51
2018-05-17T10:09:38.165Z,999.55
2018-05-17T10:10:38.268Z,999.54
2018-05-17T10:11:38.167Z,999.58
2018-05-17T10:12:38.169Z,999.51
2018-05-17T10:13:38.172Z,999.50
2018-05-17T10:14:38.322Z,999.51
2018-05-17T10:15:38.267Z,999.52
2018-05-17T10:16:38.186Z,999.54
2018-05-17T10:17:38.207Z,999.57
2018-05-17T10:18:38.185Z,999.52
2018-05-17T10:19:38.189Z,999.55
2018-05-17T10:20:38.190Z,999.49
2018-05-17T10:21:38.227Z,999.49
2018-05-17T10:22:38.207Z,999.43
2018-05-17T10:23:38.196Z,999.45
2018-05-17T10:24:38.198Z,999.50
2018-05-17T10:25:38.203Z,999.49
2018-05-17T10:26:38.206Z,999.47
2018-05-17T10:27:38.207Z,999.51
2018-05-17T10:28:38.210Z,999.49
2018-05-17T10:29:38.213Z,999.49
2018-05-17T10:30:38.224Z,999.49
2018-05-17T10:31:38.216Z,999.51
2018-05-17T10:32:38.220Z,999.53
2018-05-17T10:33:38.228Z,999.52
2018-05-17T10:34:38.231Z,999.52
2018-05-17T10:35:38.229Z,999.54
2018-05-17T10:36:38.235Z,999.53
2018-05-17T10:37:38.232Z,999.62
2018-05-17T10:38:38.247Z,999.62
2018-05-17T10:39:38.237Z,999.59
2018-05-17T10:40:38.241Z,999.59
2018-05-17T10:41:38.245Z,999.53
2018-05-17T10:42:38.247Z,999.55
2018-05-17T10:43:38.249Z,999.57
2018-05-17T10:44:38.252Z,999.54
2018-05-17T10:45:38.256Z,999.57
2018-05-17T10:46:38.260Z,999.68
2018-05-17T10:47:38.265Z,999.62
2018-05-17T10:48:38.268Z,999.63
2018-05-17T10:49:38.270Z,999.61
2018-05-17T10:50:38.274Z,999.56
2018-05-17T10:51:38.306Z,999.58
2018-05-17T10:52:38.282Z,999.56
2018-05-17T10:53:38.285Z,999.63
2018-05-17T10:54:38.333Z,999.60
2018-05-17T10:55:38.293Z,999.65
2018-05-17T10:56:38.300Z,999.58
2018-05-17T10:57:38.303Z,999.60
2018-05-17T10:58:38.307Z,999.58
2018-05-17T10:59:38.309Z,999.47
2018-05-17T11:00:38.313Z,999.47
2018-05-17T11:01:38.334Z,999.50
2018-05-17T11:02:38.353Z,999.52
2018-05-17T11:03:38.325Z,999.53
2018-05-17T11:04:38.330Z,999.57
2018-05-17T11:05:38.341Z,999.61
2018-05-17T11:06:38.342Z,999.62
2018-05-17T11:07:38.344Z,999.57
2018-05-17T11:08:38.348Z,999.53
2018-05-17T11:09:38.356Z,999.58
2018-05-17T11:10:38.366Z,999.64
2018-05-17T11:11:38.672Z,999.62
2018-05-17T11:12:38.460Z,999.67
2018-05-17T11:13:38.578Z,999.59
2018-05-17T11:14:38.382Z,999.58
2018-05-17T11:15:38.385Z,999.56
2018-05-17T11:16:38.408Z,999.52
2018-05-17T11:17:38.397Z,999.54
2018-05-17T11:18:38.406Z,999.57
2018-05-17T11:19:38.411Z,999.58
2018-05-17T11:20:38.414Z,999.58
2018-05-17T11:21:38.418Z,999.59
2018-05-17T11:22:38.425Z,999.65
2018-05-17T11:23:38.431Z,999.63
2018-05-17T11:24:38.438Z,999.61
2018-05-17T11:25:38.443Z,999.62
2018-05-17T11:26:38.481Z,999.61
2018-05-17T11:27:38.478Z,999.63
2018-05-17T11:28:38.462Z,999.54
2018-05-17T11:29:38.470Z,999.62
2018-05-17T11:30:38.478Z,999.65
2018-05-17T11:31:38.483Z,999.63
2018-05-17T11:32:38.491Z,999.63
2018-05-17T11:33:38.499Z,999.53
2018-05-17T11:34:38.548Z,999.59
2018-05-17T11:35:38.559Z,999.66
2018-05-17T11:36:38.523Z,999.65
2018-05-17T11:37:38.530Z,999.56
2018-05-17T11:38:38.600Z,999.56
2018-05-17T11:39:38.537Z,999.61
2018-05-17T11:40:38.552Z,999.57
2018-05-17T11:41:38.551Z,999.57
2018-05-17T11:42:38.563Z,999.55
2018-05-17T11:43:38.572Z,999.55
2018-05-17T11:44:39.041Z,999.48
2018-05-17T11:45:38.577Z,999.55
2018-05-17T11:46:38.584Z,999.48
2018-05-17T11:47:38.598Z,999.53
2018-05-17T11:48:38.615Z,999.53
2018-05-17T11:49:38.606Z,999.59
2018-05-17T11:50:38.615Z,999.55
2018-05-17T11:51:38.619Z,999.54
2018-05-17T11:52:38.641Z,999.53
2018-05-17T11:53:38.631Z,999.52
2018-05-17T11:54:38.639Z,999.52
2018-05-17T11:55:38.651Z,999.51
2018-05-17T11:56:38.658Z,999.49
2018-05-17T11:57:38.662Z,999.49
2018-05-17T11:58:38.670Z,999.45
2018-05-17T11:59:38.676Z,999.49
2018-05-17T12:00:40.318Z,999.55
2018-05-17T12:01:38.721Z,999.56
2018-05-17T12:02:38.712Z,999.55
2018-05-17T12:03:38.714Z,999.55
2018-05-17T12:04:38.730Z,999.53
2018-05-17T12:05:38.727Z,999.52
2018-05-17T12:06:38.750Z,999.66
2018-05-17T12:07:38.795Z,999.68
2018-05-17T12:08:38.754Z,999.70
2018-05-17T12:09:38.763Z,999.64
2018-05-17T12:10:38.881Z,999.55
2018-05-17T12:11:38.786Z,999.54
2018-05-17T12:12:38.791Z,999.56
2018-05-17T12:13:38.814Z,999.56
2018-05-17T12:14:38.810Z,999.61
2018-05-17T12:15:39.514Z,999.58
2018-05-17T12:16:38.830Z,999.60
2018-05-17T12:17:40.111Z,999.57
2018-05-17T12:18:38.851Z,999.55
2018-05-17T12:19:38.860Z,999.57
2018-05-17T12:20:38.872Z,999.59
2018-05-17T12:21:38.889Z,999.55
2018-05-17T12:22:39.225Z,999.54
2018-05-17T12:23:38.901Z,999.61
2018-05-17T12:24:38.920Z,999.62
2018-05-17T12:25:38.921Z,999.62
2018-05-17T12:26:38.932Z,999.63
2018-05-17T12:27:38.943Z,999.65
2018-05-17T12:28:38.954Z,999.57